sensor_id;sensor_type;location;lat;lon;timestamp;pressure;altitude;pressure_sealevel;temperature;humidity
43804;BME280;29430;52.924;-2.388;2023-09-18T00:02:41;97932.00;;;16.94;100.00
43804;BME280;29430;52.924;-2.388;2023-09-18T00:07:33;97928.97;;;16.96;100.00
43804;BME280;29430;52.924;-2.388;2023-09-18T00:12:24;97911.72;;;16.95;100.00
43804;BME280;29430;52.924;-2.388;2023-09-18T00:17:16;97904.31;;;16.96;100.00
43804;BME280;29430;52.924;-2.388;2023-09-18T00:22:08;97899.97;;;16.95;100.00
43804;BME280;29430;52.924;-2.388;2023-09-18T00:27:00;97888.19;;;16.94;100.00
43804;BME280;29430;52.924;-2.388;2023-09-18T00:31:52;97884.94;;;16.92;100.00
43804;BME280;29430;52.924;-2.388;2023-09-18T00:36:43;97881.09;;;16.93;100.00
43804;BME280;29430;52.924;-2.388;2023-09-18T00:41:36;97876.13;;;16.95;100.00
43804;BME280;29430;52.924;-2.388;2023-09-18T00:46:27;97871.75;;;16.94;100.00
43804;BME280;29430;52.924;-2.388;2023-09-18T00:51:19;97868.81;;;16.91;100.00
43804;BME280;29430;52.924;-2.388;2023-09-18T00:56:11;97869.94;;;16.90;100.00
43804;BME280;29430;52.924;-2.388;2023-09-18T01:01:04;97869.94;;;16.90;100.00
43804;BME280;29430;52.924;-2.388;2023-09-18T01:05:56;97853.81;;;16.88;100.00
43804;BME280;29430;52.924;-2.388;2023-09-18T01:11:00;97852.19;;;16.87;100.00
43804;BME280;29430;52.924;-2.388;2023-09-18T01:15:58;97835.22;;;16.85;100.00
43804;BME280;29430;52.924;-2.388;2023-09-18T01:20:54;97826.50;;;16.83;100.00
43804;BME280;29430;52.924;-2.388;2023-09-18T01:25:45;97819.19;;;16.78;100.00
43804;BME280;29430;52.924;-2.388;2023-09-18T01:30:37;97819.81;;;16.75;100.00
43804;BME280;29430;52.924;-2.388;2023-09-18T01:35:31;97810.28;;;16.73;100.00
43804;BME280;29430;52.924;-2.388;2023-09-18T01:40:24;97807.22;;;16.74;100.00
43804;BME280;29430;52.924;-2.388;2023-09-18T01:45:16;97787.25;;;16.74;100.00
43804;BME280;29430;52.924;-2.388;2023-09-18T01:50:07;97787.25;;;16.74;100.00
43804;BME280;29430;52.924;-2.388;2023-09-18T01:55:00;97770.03;;;16.73;100.00
43804;BME280;29430;52.924;-2.388;2023-09-18T01:59:51;97759.09;;;16.73;100.00
43804;BME280;29430;52.924;-2.388;2023-09-18T02:04:43;97744.88;;;16.71;100.00
43804;BME280;29430;52.924;-2.388;2023-09-18T02:09:56;97753.09;;;16.71;100.00
43804;BME280;29430;52.924;-2.388;2023-09-18T02:14:48;97744.06;;;16.71;100.00
43804;BME280;29430;52.924;-2.388;2023-09-18T02:19:40;97727.97;;;16.69;100.00
43804;BME280;29430;52.924;-2.388;2023-09-18T02:24:31;97713.47;;;16.69;100.00
43804;BME280;29430;52.924;-2.388;2023-09-18T02:29:23;97685.88;;;16.65;100.00
43804;BME280;29430;52.924;-2.388;2023-09-18T02:34:15;97680.72;;;16.63;100.00
43804;BME280;29430;52.924;-2.388;2023-09-18T02:39:07;97651.75;;;16.62;100.00
43804;BME280;29430;52.924;-2.388;2023-09-18T02:43:58;97636.13;;;16.63;100.00
43804;BME280;29430;52.924;-2.388;2023-09-18T02:48:50;97630.16;;;16.61;100.00
43804;BME280;29430;52.924;-2.388;2023-09-18T02:53:42;97627.50;;;16.56;100.00
43804;BME280;29430;52.924;-2.388;2023-09-18T02:58:34;97625.09;;;16.54;100.00
43804;BME280;29430;52.924;-2.388;2023-09-18T03:03:26;97622.66;;;16.53;100.00
43804;BME280;29430;52.924;-2.388;2023-09-18T03:08:18;97611.22;;;16.51;100.00
43804;BME280;29430;52.924;-2.388;2023-09-18T03:13:11;97617.50;;;16.51;100.00
43804;BME280;29430;52.924;-2.388;2023-09-18T03:18:05;97602.31;;;16.45;100.00
43804;BME280;29430;52.924;-2.388;2023-09-18T03:22:59;97602.94;;;16.42;100.00
43804;BME280;29430;52.924;-2.388;2023-09-18T03:27:53;97594.53;;;16.38;100.00
43804;BME280;29430;52.924;-2.388;2023-09-18T03:32:45;97586.94;;;16.35;100.00
43804;BME280;29430;52.924;-2.388;2023-09-18T03:37:37;97574.50;;;16.29;100.00
43804;BME280;29430;52.924;-2.388;2023-09-18T03:42:29;97572.69;;;16.24;100.00
43804;BME280;29430;52.924;-2.388;2023-09-18T03:47:20;97580.09;;;16.24;100.00
43804;BME280;29430;52.924;-2.388;2023-09-18T03:52:12;97575.03;;;16.17;100.00
43804;BME280;29430;52.924;-2.388;2023-09-18T03:57:04;97573.72;;;16.15;100.00
43804;BME280;29430;52.924;-2.388;2023-09-18T04:01:56;97588.81;;;16.12;100.00
43804;BME280;29430;52.924;-2.388;2023-09-18T04:06:47;97584.88;;;16.04;100.00
43804;BME280;29430;52.924;-2.388;2023-09-18T04:11:41;97585.50;;;16.01;100.00
43804;BME280;29430;52.924;-2.388;2023-09-18T04:16:33;97597.03;;;15.98;100.00
43804;BME280;29430;52.924;-2.388;2023-09-18T04:21:28;97587.31;;;15.92;100.00
43804;BME280;29430;52.924;-2.388;2023-09-18T04:26:21;97571.03;;;15.87;100.00
43804;BME280;29430;52.924;-2.388;2023-09-18T04:31:12;97570.03;;;15.83;100.00
43804;BME280;29430;52.924;-2.388;2023-09-18T04:36:04;97585.44;;;15.79;100.00
43804;BME280;29430;52.924;-2.388;2023-09-18T04:41:00;97570.22;;;15.72;100.00
43804;BME280;29430;52.924;-2.388;2023-09-18T04:45:52;97566.78;;;15.67;100.00
43804;BME280;29430;52.924;-2.388;2023-09-18T04:50:44;97579.13;;;15.64;100.00
43804;BME280;29430;52.924;-2.388;2023-09-18T04:55:36;97572.44;;;15.56;100.00
43804;BME280;29430;52.924;-2.388;2023-09-18T05:00:29;97572.53;;;15.51;100.00
43804;BME280;29430;52.924;-2.388;2023-09-18T05:05:21;97561.41;;;15.48;100.00
43804;BME280;29430;52.924;-2.388;2023-09-18T05:10:13;97564.75;;;15.45;100.00
43804;BME280;29430;52.924;-2.388;2023-09-18T05:15:05;97559.66;;;15.38;100.00
43804;BME280;29430;52.924;-2.388;2023-09-18T05:19:57;97560.09;;;15.31;100.00
43804;BME280;29430;52.924;-2.388;2023-09-18T05:24:49;97545.50;;;15.22;100.00
43804;BME280;29430;52.924;-2.388;2023-09-18T05:29:40;97547.50;;;15.16;100.00
43804;BME280;29430;52.924;-2.388;2023-09-18T05:34:32;97550.03;;;15.13;100.00
43804;BME280;29430;52.924;-2.388;2023-09-18T05:39:24;97541.44;;;15.06;100.00
43804;BME280;29430;52.924;-2.388;2023-09-18T05:44:16;97533.94;;;14.97;100.00
43804;BME280;29430;52.924;-2.388;2023-09-18T05:49:10;97532.41;;;14.91;100.00
43804;BME280;29430;52.924;-2.388;2023-09-18T05:54:02;97532.50;;;14.86;100.00
43804;BME280;29430;52.924;-2.388;2023-09-18T05:58:53;97539.16;;;14.80;100.00
43804;BME280;29430;52.924;-2.388;2023-09-18T06:03:46;97536.22;;;14.76;100.00
43804;BME280;29430;52.924;-2.388;2023-09-18T06:08:39;97522.88;;;14.75;100.00
43804;BME280;29430;52.924;-2.388;2023-09-18T06:13:31;97519.13;;;14.71;100.00
43804;BME280;29430;52.924;-2.388;2023-09-18T06:18:25;97514.78;;;14.70;100.00
43804;BME280;29430;52.924;-2.388;2023-09-18T06:23:17;97515.66;;;14.65;100.00
43804;BME280;29430;52.924;-2.388;2023-09-18T06:28:09;97511.63;;;14.62;100.00
43804;BME280;29430;52.924;-2.388;2023-09-18T06:33:00;97503.19;;;14.59;100.00
43804;BME280;29430;52.924;-2.388;2023-09-18T06:37:52;97498.25;;;14.61;100.00
43804;BME280;29430;52.924;-2.388;2023-09-18T06:42:49;97497.97;;;14.62;100.00
43804;BME280;29430;52.924;-2.388;2023-09-18T06:47:41;97503.25;;;14.73;100.00
43804;BME280;29430;52.924;-2.388;2023-09-18T06:52:33;97499.09;;;15.22;100.00
43804;BME280;29430;52.924;-2.388;2023-09-18T06:57:24;97501.38;;;15.84;100.00
43804;BME280;29430;52.924;-2.388;2023-09-18T07:02:16;97496.28;;;16.51;100.00
43804;BME280;29430;52.924;-2.388;2023-09-18T07:07:08;97503.53;;;17.00;100.00
43804;BME280;29430;52.924;-2.388;2023-09-18T07:12:00;97486.28;;;17.40;100.00
43804;BME280;29430;52.924;-2.388;2023-09-18T07:16:51;97481.47;;;17.46;99.18
43804;BME280;29430;52.924;-2.388;2023-09-18T07:21:43;97466.84;;;17.68;98.09
43804;BME280;29430;52.924;-2.388;2023-09-18T07:26:35;97472.41;;;18.03;97.44
43804;BME280;29430;52.924;-2.388;2023-09-18T07:31:27;97474.81;;;18.39;96.50
43804;BME280;29430;52.924;-2.388;2023-09-18T07:36:18;97480.72;;;18.85;91.80
43804;BME280;29430;52.924;-2.388;2023-09-18T07:41:11;97483.94;;;19.35;90.75
43804;BME280;29430;52.924;-2.388;2023-09-18T07:46:03;97490.38;;;19.77;86.33
43804;BME280;29430;52.924;-2.388;2023-09-18T07:50:56;97479.38;;;20.19;85.15
43804;BME280;29430;52.924;-2.388;2023-09-18T07:55:48;97483.31;;;20.52;80.97
43804;BME280;29430;52.924;-2.388;2023-09-18T08:00:46;97484.94;;;20.86;82.23
43804;BME280;29430;52.924;-2.388;2023-09-18T08:05:40;97469.94;;;21.33;78.58
43804;BME280;29430;52.924;-2.388;2023-09-18T08:10:31;97477.44;;;21.57;75.91
43804;BME280;29430;52.924;-2.388;2023-09-18T08:15:23;97468.91;;;21.75;74.98
43804;BME280;29430;52.924;-2.388;2023-09-18T08:20:16;97464.72;;;22.06;73.87
43804;BME280;29430;52.924;-2.388;2023-09-18T08:25:15;97465.50;;;22.31;71.18
43804;BME280;29430;52.924;-2.388;2023-09-18T08:30:21;97454.16;;;22.64;70.03
43804;BME280;29430;52.924;-2.388;2023-09-18T08:35:13;97453.94;;;22.85;67.64
43804;BME280;29430;52.924;-2.388;2023-09-18T08:40:05;97448.69;;;22.52;68.79
43804;BME280;29430;52.924;-2.388;2023-09-18T08:45:02;97449.69;;;22.60;70.08
43804;BME280;29430;52.924;-2.388;2023-09-18T08:49:58;97447.53;;;22.25;68.78
43804;BME280;29430;52.924;-2.388;2023-09-18T08:54:52;97456.06;;;21.54;69.29
43804;BME280;29430;52.924;-2.388;2023-09-18T08:59:46;97450.38;;;20.89;72.30
43804;BME280;29430;52.924;-2.388;2023-09-18T09:04:39;97453.03;;;20.31;74.04
43804;BME280;29430;52.924;-2.388;2023-09-18T09:09:31;97460.03;;;19.86;77.44
43804;BME280;29430;52.924;-2.388;2023-09-18T09:14:22;97450.06;;;19.52;79.62
43804;BME280;29430;52.924;-2.388;2023-09-18T09:19:29;97448.41;;;19.29;81.30
43804;BME280;29430;52.924;-2.388;2023-09-18T09:24:38;97450.78;;;19.01;82.85
43804;BME280;29430;52.924;-2.388;2023-09-18T09:29:30;97451.50;;;18.72;84.91
43804;BME280;29430;52.924;-2.388;2023-09-18T09:34:26;97443.50;;;18.40;87.94
43804;BME280;29430;52.924;-2.388;2023-09-18T09:39:19;97452.06;;;18.21;90.20
43804;BME280;29430;52.924;-2.388;2023-09-18T09:44:13;97446.56;;;18.04;92.26
43804;BME280;29430;52.924;-2.388;2023-09-18T09:49:06;97449.94;;;17.83;92.79
43804;BME280;29430;52.924;-2.388;2023-09-18T09:53:58;97465.06;;;17.63;94.20
43804;BME280;29430;52.924;-2.388;2023-09-18T09:59:03;97462.13;;;17.51;95.62
43804;BME280;29430;52.924;-2.388;2023-09-18T10:04:14;97467.91;;;17.41;97.06
43804;BME280;29430;52.924;-2.388;2023-09-18T10:09:10;97474.97;;;17.33;97.20
43804;BME280;29430;52.924;-2.388;2023-09-18T10:14:08;97478.47;;;17.16;98.78
43804;BME280;29430;52.924;-2.388;2023-09-18T10:19:11;97476.81;;;17.06;100.00
43804;BME280;29430;52.924;-2.388;2023-09-18T10:29:05;97465.09;;;16.83;100.00
43804;BME280;29430;52.924;-2.388;2023-09-18T10:34:01;97465.09;;;16.83;100.00
43804;BME280;29430;52.924;-2.388;2023-09-18T10:38:55;97485.44;;;16.68;100.00
43804;BME280;29430;52.924;-2.388;2023-09-18T10:43:51;97507.47;;;16.63;100.00
43804;BME280;29430;52.924;-2.388;2023-09-18T10:48:45;97526.00;;;16.43;96.00
43804;BME280;29430;52.924;-2.388;2023-09-18T10:53:38;97520.22;;;16.22;95.38
43804;BME280;29430;52.924;-2.388;2023-09-18T10:58:29;97545.50;;;16.05;94.71
43804;BME280;29430;52.924;-2.388;2023-09-18T11:03:22;97541.47;;;15.89;92.09
43804;BME280;29430;52.924;-2.388;2023-09-18T11:13:28;97556.56;;;15.72;95.29
43804;BME280;29430;52.924;-2.388;2023-09-18T11:18:20;97554.31;;;15.74;96.05
43804;BME280;29430;52.924;-2.388;2023-09-18T11:28:06;97569.16;;;16.46;98.72
43804;BME280;29430;52.924;-2.388;2023-09-18T11:32:59;97564.44;;;16.83;97.14
43804;BME280;29430;52.924;-2.388;2023-09-18T11:38:12;97565.50;;;17.19;93.77
43804;BME280;29430;52.924;-2.388;2023-09-18T11:43:26;97561.97;;;17.59;95.56
43804;BME280;29430;52.924;-2.388;2023-09-18T11:48:18;97565.34;;;18.13;95.66
43804;BME280;29430;52.924;-2.388;2023-09-18T11:53:13;97566.03;;;18.45;91.00
43804;BME280;29430;52.924;-2.388;2023-09-18T11:58:06;97580.56;;;18.54;89.14
43804;BME280;29430;52.924;-2.388;2023-09-18T12:03:13;97571.22;;;18.55;85.46
43804;BME280;29430;52.924;-2.388;2023-09-18T12:08:08;97569.25;;;18.47;85.82
43804;BME280;29430;52.924;-2.388;2023-09-18T12:13:06;97578.00;;;18.49;84.34
43804;BME280;29430;52.924;-2.388;2023-09-18T12:18:07;97579.28;;;18.43;83.66
43804;BME280;29430;52.924;-2.388;2023-09-18T12:22:59;97580.25;;;18.38;83.83
43804;BME280;29430;52.924;-2.388;2023-09-18T12:27:54;97588.97;;;18.40;83.61
43804;BME280;29430;52.924;-2.388;2023-09-18T12:32:46;97588.16;;;18.31;83.46
43804;BME280;29430;52.924;-2.388;2023-09-18T12:37:42;97624.13;;;18.12;81.33
43804;BME280;29430;52.924;-2.388;2023-09-18T12:42:33;97647.09;;;17.53;81.16
43804;BME280;29430;52.924;-2.388;2023-09-18T12:47:25;97647.81;;;16.91;84.60
43804;BME280;29430;52.924;-2.388;2023-09-18T12:52:22;97638.28;;;16.52;86.62
43804;BME280;29430;52.924;-2.388;2023-09-18T12:57:16;97655.78;;;16.28;89.13
43804;BME280;29430;52.924;-2.388;2023-09-18T13:02:08;97662.56;;;16.03;89.28
43804;BME280;29430;52.924;-2.388;2023-09-18T13:07:08;97666.50;;;15.83;90.48
43804;BME280;29430;52.924;-2.388;2023-09-18T13:12:00;97666.50;;;15.83;94.33
43804;BME280;29430;52.924;-2.388;2023-09-18T13:16:53;97661.94;;;16.06;95.00
43804;BME280;29430;52.924;-2.388;2023-09-18T13:21:49;97672.97;;;16.29;95.06
43804;BME280;29430;52.924;-2.388;2023-09-18T13:26:44;97672.34;;;16.46;94.17
43804;BME280;29430;52.924;-2.388;2023-09-18T13:31:36;97669.78;;;16.63;94.80
43804;BME280;29430;52.924;-2.388;2023-09-18T13:36:29;97666.19;;;16.77;93.30
43804;BME280;29430;52.924;-2.388;2023-09-18T13:41:20;97675.50;;;16.90;93.28
43804;BME280;29430;52.924;-2.388;2023-09-18T13:46:12;97684.84;;;17.11;89.03
43804;BME280;29430;52.924;-2.388;2023-09-18T13:51:04;97685.69;;;17.12;89.74
43804;BME280;29430;52.924;-2.388;2023-09-18T13:55:55;97694.25;;;17.19;87.17
43804;BME280;29430;52.924;-2.388;2023-09-18T14:00:48;97691.66;;;17.14;81.16
43804;BME280;29430;52.924;-2.388;2023-09-18T14:05:40;97693.94;;;17.21;81.56
43804;BME280;29430;52.924;-2.388;2023-09-18T14:10:32;97692.53;;;17.23;79.11
43804;BME280;29430;52.924;-2.388;2023-09-18T15:03:54;97729.97;;;16.91;67.71
43804;BME280;29430;52.924;-2.388;2023-09-18T15:08:47;97732.50;;;16.88;66.53
43804;BME280;29430;52.924;-2.388;2023-09-18T15:13:40;97734.72;;;16.86;69.25
43804;BME280;29430;52.924;-2.388;2023-09-18T15:18:31;97728.72;;;16.83;68.28
43804;BME280;29430;52.924;-2.388;2023-09-18T15:23:24;97738.56;;;16.85;68.65
43804;BME280;29430;52.924;-2.388;2023-09-18T15:28:16;97735.84;;;16.85;68.74
43804;BME280;29430;52.924;-2.388;2023-09-18T15:33:11;97733.31;;;16.88;67.88
43804;BME280;29430;52.924;-2.388;2023-09-18T15:38:03;97753.38;;;16.83;66.11
43804;BME280;29430;52.924;-2.388;2023-09-18T15:42:55;97756.03;;;16.75;65.92
43804;BME280;29430;52.924;-2.388;2023-09-18T15:47:47;97747.53;;;16.62;67.38
43804;BME280;29430;52.924;-2.388;2023-09-18T15:52:39;97752.72;;;16.64;68.13
43804;BME280;29430;52.924;-2.388;2023-09-18T15:57:33;97738.28;;;16.72;66.40
43804;BME280;29430;52.924;-2.388;2023-09-18T16:02:24;97760.38;;;16.76;63.86
43804;BME280;29430;52.924;-2.388;2023-09-18T16:07:16;97755.75;;;16.62;65.45
43804;BME280;29430;52.924;-2.388;2023-09-18T16:12:09;97757.69;;;16.48;65.52
43804;BME280;29430;52.924;-2.388;2023-09-18T16:17:00;97769.34;;;16.40;65.22
43804;BME280;29430;52.924;-2.388;2023-09-18T16:21:55;97763.97;;;16.21;64.83
43804;BME280;29430;52.924;-2.388;2023-09-18T16:26:47;97760.69;;;15.91;66.68
43804;BME280;29430;52.924;-2.388;2023-09-18T16:31:39;97751.03;;;15.80;67.31
43804;BME280;29430;52.924;-2.388;2023-09-18T16:36:30;97745.34;;;15.76;68.20
43804;BME280;29430;52.924;-2.388;2023-09-18T16:41:22;97757.69;;;15.73;68.91
43804;BME280;29430;52.924;-2.388;2023-09-18T16:46:14;97772.47;;;15.72;68.69
43804;BME280;29430;52.924;-2.388;2023-09-18T16:51:05;97785.41;;;15.67;70.92
43804;BME280;29430;52.924;-2.388;2023-09-18T16:55:59;97784.25;;;15.54;67.79
43804;BME280;29430;52.924;-2.388;2023-09-18T17:00:51;97784.22;;;15.40;67.20
43804;BME280;29430;52.924;-2.388;2023-09-18T17:05:42;97789.31;;;15.28;68.95
43804;BME280;29430;52.924;-2.388;2023-09-18T17:10:34;97803.63;;;15.19;68.68
43804;BME280;29430;52.924;-2.388;2023-09-18T17:15:26;97809.25;;;15.09;70.05
43804;BME280;29430;52.924;-2.388;2023-09-18T17:20:18;97812.31;;;15.02;70.26
43804;BME280;29430;52.924;-2.388;2023-09-18T17:25:10;97811.94;;;14.90;71.21
43804;BME280;29430;52.924;-2.388;2023-09-18T17:30:02;97811.03;;;14.76;72.06
43804;BME280;29430;52.924;-2.388;2023-09-18T17:34:57;97815.28;;;14.63;72.81
43804;BME280;29430;52.924;-2.388;2023-09-18T17:39:50;97820.31;;;14.50;73.33
43804;BME280;29430;52.924;-2.388;2023-09-18T17:44:43;97831.34;;;14.40;73.36
43804;BME280;29430;52.924;-2.388;2023-09-18T17:49:35;97833.94;;;14.26;73.00
43804;BME280;29430;52.924;-2.388;2023-09-18T17:54:27;97837.63;;;14.11;73.49
43804;BME280;29430;52.924;-2.388;2023-09-18T17:59:19;97841.06;;;13.93;72.74
43804;BME280;29430;52.924;-2.388;2023-09-18T18:04:11;97846.91;;;13.81;74.41
43804;BME280;29430;52.924;-2.388;2023-09-18T18:09:03;97853.47;;;13.75;74.83
43804;BME280;29430;52.924;-2.388;2023-09-18T18:13:56;97861.69;;;13.70;76.32
43804;BME280;29430;52.924;-2.388;2023-09-18T18:18:48;97862.53;;;13.65;77.04
43804;BME280;29430;52.924;-2.388;2023-09-18T18:23:40;97880.56;;;13.61;77.58
43804;BME280;29430;52.924;-2.388;2023-09-18T18:28:32;97870.81;;;13.50;78.96
43804;BME280;29430;52.924;-2.388;2023-09-18T18:33:24;97878.75;;;13.46;79.75
43804;BME280;29430;52.924;-2.388;2023-09-18T18:38:16;97874.47;;;13.35;80.84
43804;BME280;29430;52.924;-2.388;2023-09-18T18:43:07;97875.00;;;13.32;81.92
43804;BME280;29430;52.924;-2.388;2023-09-18T18:47:59;97887.00;;;13.25;82.50
43804;BME280;29430;52.924;-2.388;2023-09-18T18:52:52;97897.38;;;13.18;83.17
43804;BME280;29430;52.924;-2.388;2023-09-18T18:57:44;97898.50;;;13.12;83.78
43804;BME280;29430;52.924;-2.388;2023-09-18T19:02:35;97908.34;;;13.03;84.64
43804;BME280;29430;52.924;-2.388;2023-09-18T19:07:27;97902.38;;;12.96;85.11
43804;BME280;29430;52.924;-2.388;2023-09-18T19:12:19;97912.19;;;12.92;85.79
43804;BME280;29430;52.924;-2.388;2023-09-18T19:17:11;97917.09;;;12.84;86.32
43804;BME280;29430;52.924;-2.388;2023-09-18T19:22:02;97942.97;;;12.87;87.12
43804;BME280;29430;52.924;-2.388;2023-09-18T19:26:54;97936.16;;;12.84;88.36
43804;BME280;29430;52.924;-2.388;2023-09-18T19:31:46;97937.25;;;12.88;89.37
43804;BME280;29430;52.924;-2.388;2023-09-18T19:36:39;97945.41;;;12.88;89.61
43804;BME280;29430;52.924;-2.388;2023-09-18T19:41:31;97937.78;;;12.85;88.96
43804;BME280;29430;52.924;-2.388;2023-09-18T19:46:23;97948.16;;;12.78;88.41
43804;BME280;29430;52.924;-2.388;2023-09-18T19:51:16;97946.25;;;12.74;88.08
43804;BME280;29430;52.924;-2.388;2023-09-18T19:56:07;97955.75;;;12.71;87.58
43804;BME280;29430;52.924;-2.388;2023-09-18T20:00:59;97970.75;;;12.68;87.11
43804;BME280;29430;52.924;-2.388;2023-09-18T20:05:51;97982.72;;;12.62;87.00
43804;BME280;29430;52.924;-2.388;2023-09-18T20:10:42;97984.34;;;12.58;86.21
43804;BME280;29430;52.924;-2.388;2023-09-18T20:15:34;97973.75;;;12.51;86.77
43804;BME280;29430;52.924;-2.388;2023-09-18T20:20:26;97995.22;;;12.48;86.59
43804;BME280;29430;52.924;-2.388;2023-09-18T20:25:18;97984.09;;;12.39;86.32
43804;BME280;29430;52.924;-2.388;2023-09-18T20:30:11;97991.16;;;12.35;86.12
43804;BME280;29430;52.924;-2.388;2023-09-18T20:35:06;97987.09;;;12.22;86.79
43804;BME280;29430;52.924;-2.388;2023-09-18T20:39:57;97986.81;;;12.18;87.07
43804;BME280;29430;52.924;-2.388;2023-09-18T20:44:51;97999.59;;;12.13;86.89
43804;BME280;29430;52.924;-2.388;2023-09-18T20:49:44;97993.88;;;12.04;87.34
43804;BME280;29430;52.924;-2.388;2023-09-18T20:54:39;98002.28;;;11.97;88.15
43804;BME280;29430;52.924;-2.388;2023-09-18T20:59:31;98001.19;;;11.93;88.43
43804;BME280;29430;52.924;-2.388;2023-09-18T21:04:23;98000.84;;;11.85;88.63
43804;BME280;29430;52.924;-2.388;2023-09-18T21:09:15;98010.91;;;11.84;89.90
43804;BME280;29430;52.924;-2.388;2023-09-18T21:14:07;98010.09;;;11.83;89.73
43804;BME280;29430;52.924;-2.388;2023-09-18T21:19:00;98013.63;;;11.84;90.08
43804;BME280;29430;52.924;-2.388;2023-09-18T21:23:51;98016.63;;;11.82;90.31
43804;BME280;29430;52.924;-2.388;2023-09-18T21:28:43;98019.88;;;11.79;90.42
43804;BME280;29430;52.924;-2.388;2023-09-18T21:33:35;98026.09;;;11.75;90.53
43804;BME280;29430;52.924;-2.388;2023-09-18T21:38:28;98029.34;;;11.72;91.22
43804;BME280;29430;52.924;-2.388;2023-09-18T21:43:20;98026.63;;;11.67;91.54
43804;BME280;29430;52.924;-2.388;2023-09-18T21:48:12;98038.84;;;11.64;92.29
43804;BME280;29430;52.924;-2.388;2023-09-18T21:53:04;98036.66;;;11.61;92.42
43804;BME280;29430;52.924;-2.388;2023-09-18T21:57:56;98039.38;;;11.61;92.86
43804;BME280;29430;52.924;-2.388;2023-09-18T22:02:48;98045.59;;;11.56;93.56
43804;BME280;29430;52.924;-2.388;2023-09-18T22:07:40;98029.84;;;11.53;93.63
43804;BME280;29430;52.924;-2.388;2023-09-18T22:12:32;98036.06;;;11.54;93.81
43804;BME280;29430;52.924;-2.388;2023-09-18T22:17:24;98035.78;;;11.50;93.77
43804;BME280;29430;52.924;-2.388;2023-09-18T22:22:16;98032.28;;;11.50;93.54
43804;BME280;29430;52.924;-2.388;2023-09-18T22:27:07;98028.44;;;11.51;93.12
43804;BME280;29430;52.924;-2.388;2023-09-18T22:31:59;98027.09;;;11.48;92.93
43804;BME280;29430;52.924;-2.388;2023-09-18T22:36:51;98016.78;;;11.50;93.64
43804;BME280;29430;52.924;-2.388;2023-09-18T22:57:14;98017.06;;;11.49;92.98
43804;BME280;29430;52.924;-2.388;2023-09-18T23:02:06;98020.56;;;11.44;93.65
43804;BME280;29430;52.924;-2.388;2023-09-18T23:06:58;98017.31;;;11.42;93.29
43804;BME280;29430;52.924;-2.388;2023-09-18T23:11:55;98041.47;;;11.43;92.63
43804;BME280;29430;52.924;-2.388;2023-09-18T23:16:47;98049.03;;;11.41;92.52
43804;BME280;29430;52.924;-2.388;2023-09-18T23:21:39;98061.53;;;11.37;92.75
43804;BME280;29430;52.924;-2.388;2023-09-18T23:26:30;98065.59;;;11.40;93.03
43804;BME280;29430;52.924;-2.388;2023-09-18T23:31:23;98069.69;;;11.37;92.22
43804;BME280;29430;52.924;-2.388;2023-09-18T23:36:16;98086.25;;;11.41;92.24
43804;BME280;29430;52.924;-2.388;2023-09-18T23:41:08;98063.41;;;11.37;91.75
43804;BME280;29430;52.924;-2.388;2023-09-18T23:46:00;98072.13;;;11.39;92.13
43804;BME280;29430;52.924;-2.388;2023-09-18T23:50:54;98064.25;;;11.37;92.25
43804;BME280;29430;52.924;-2.388;2023-09-18T23:55:50;98063.72;;;11.40;92.46
